sensor_id;sensor_type;location;lat;lon;timestamp;pressure;altitude;pressure_sealevel;temperature;humidity
20630;BME280;17386;43.846;25.950;2023-01-25T00:01:12;103141.09;;;3.28;100.00
20630;BME280;17386;43.846;25.950;2023-01-25T00:03:37;103142.75;;;3.24;100.00
20630;BME280;17386;43.846;25.950;2023-01-25T00:06:03;103136.41;;;3.18;100.00
20630;BME280;17386;43.846;25.950;2023-01-25T00:08:28;103134.91;;;3.26;100.00
20630;BME280;17386;43.846;25.950;2023-01-25T00:10:54;103130.50;;;3.25;100.00
20630;BME280;17386;43.846;25.950;2023-01-25T00:13:19;103141.91;;;3.25;100.00
20630;BME280;17386;43.846;25.950;2023-01-25T00:15:45;103142.72;;;3.23;100.00
20630;BME280;17386;43.846;25.950;2023-01-25T00:18:10;103124.13;;;3.17;100.00
20630;BME280;17386;43.846;25.950;2023-01-25T00:20:35;103151.63;;;3.28;100.00
20630;BME280;17386;43.846;25.950;2023-01-25T00:23:01;103153.22;;;3.23;100.00
20630;BME280;17386;43.846;25.950;2023-01-25T00:25:26;103146.22;;;3.23;100.00
20630;BME280;17386;43.846;25.950;2023-01-25T00:27:52;103127.19;;;3.04;100.00
20630;BME280;17386;43.846;25.950;2023-01-25T00:30:17;103144.94;;;3.11;100.00
20630;BME280;17386;43.846;25.950;2023-01-25T00:33:06;103143.22;;;3.13;100.00
20630;BME280;17386;43.846;25.950;2023-01-25T00:35:50;103137.34;;;3.20;100.00
20630;BME280;17386;43.846;25.950;2023-01-25T00:38:36;103133.56;;;3.12;100.00
20630;BME280;17386;43.846;25.950;2023-01-25T00:41:02;103134.47;;;3.12;100.00
20630;BME280;17386;43.846;25.950;2023-01-25T00:43:28;103145.13;;;3.17;100.00
20630;BME280;17386;43.846;25.950;2023-01-25T00:45:59;103140.72;;;3.16;100.00
20630;BME280;17386;43.846;25.950;2023-01-25T00:48:25;103145.84;;;3.13;100.00
20630;BME280;17386;43.846;25.950;2023-01-25T00:50:50;103154.75;;;2.91;100.00
20630;BME280;17386;43.846;25.950;2023-01-25T00:53:15;103145.66;;;2.81;100.00
20630;BME280;17386;43.846;25.950;2023-01-25T00:55:41;103133.06;;;2.71;100.00
20630;BME280;17386;43.846;25.950;2023-01-25T00:58:15;103134.84;;;2.72;100.00
20630;BME280;17386;43.846;25.950;2023-01-25T01:00:40;103130.47;;;2.72;100.00
20630;BME280;17386;43.846;25.950;2023-01-25T01:03:05;103132.53;;;2.81;100.00
20630;BME280;17386;43.846;25.950;2023-01-25T01:05:31;103124.59;;;2.80;100.00
20630;BME280;17386;43.846;25.950;2023-01-25T01:07:56;103119.56;;;2.86;100.00
20630;BME280;17386;43.846;25.950;2023-01-25T01:10:23;103122.16;;;2.84;100.00
20630;BME280;17386;43.846;25.950;2023-01-25T01:12:48;103132.97;;;2.68;100.00
20630;BME280;17386;43.846;25.950;2023-01-25T01:15:15;103129.31;;;2.64;100.00
20630;BME280;17386;43.846;25.950;2023-01-25T01:17:40;103121.34;;;2.61;100.00
20630;BME280;17386;43.846;25.950;2023-01-25T01:20:06;103118.81;;;2.64;100.00
20630;BME280;17386;43.846;25.950;2023-01-25T01:22:31;103129.22;;;2.61;100.00
20630;BME280;17386;43.846;25.950;2023-01-25T01:24:56;103122.75;;;2.52;100.00
20630;BME280;17386;43.846;25.950;2023-01-25T01:27:22;103122.16;;;2.60;100.00
20630;BME280;17386;43.846;25.950;2023-01-25T01:29:47;103112.47;;;2.58;100.00
20630;BME280;17386;43.846;25.950;2023-01-25T01:32:13;103120.38;;;2.59;100.00
20630;BME280;17386;43.846;25.950;2023-01-25T01:34:38;103119.22;;;2.51;100.00
20630;BME280;17386;43.846;25.950;2023-01-25T01:37:03;103115.31;;;2.40;100.00
20630;BME280;17386;43.846;25.950;2023-01-25T01:39:29;103120.88;;;2.47;100.00
20630;BME280;17386;43.846;25.950;2023-01-25T01:41:54;103118.66;;;2.34;100.00
20630;BME280;17386;43.846;25.950;2023-01-25T01:44:40;103116.06;;;2.36;100.00
20630;BME280;17386;43.846;25.950;2023-01-25T01:47:10;103115.31;;;2.40;100.00
20630;BME280;17386;43.846;25.950;2023-01-25T01:49:39;103112.50;;;2.34;100.00
20630;BME280;17386;43.846;25.950;2023-01-25T01:52:14;103113.53;;;2.39;100.00
20630;BME280;17386;43.846;25.950;2023-01-25T01:54:47;103112.50;;;2.34;100.00
20630;BME280;17386;43.846;25.950;2023-01-25T01:57:17;103099.50;;;2.37;100.00
20630;BME280;17386;43.846;25.950;2023-01-25T01:59:51;103099.72;;;2.43;100.00
20630;BME280;17386;43.846;25.950;2023-01-25T02:02:18;103100.56;;;2.42;100.00
20630;BME280;17386;43.846;25.950;2023-01-25T02:04:46;103098.91;;;2.45;100.00
20630;BME280;17386;43.846;25.950;2023-01-25T02:07:20;103094.63;;;2.47;100.00
20630;BME280;17386;43.846;25.950;2023-01-25T02:09:49;103094.72;;;2.51;100.00
20630;BME280;17386;43.846;25.950;2023-01-25T02:12:15;103094.72;;;2.51;100.00
20630;BME280;17386;43.846;25.950;2023-01-25T02:14:47;103087.44;;;2.42;100.00
20630;BME280;17386;43.846;25.950;2023-01-25T02:17:13;103099.66;;;2.41;100.00
20630;BME280;17386;43.846;25.950;2023-01-25T02:22:10;103087.53;;;2.45;100.00
20630;BME280;17386;43.846;25.950;2023-01-25T02:24:42;103087.66;;;2.48;100.00
20630;BME280;17386;43.846;25.950;2023-01-25T02:27:10;103081.56;;;2.49;100.00
20630;BME280;17386;43.846;25.950;2023-01-25T02:29:36;103082.50;;;2.51;100.00
20630;BME280;17386;43.846;25.950;2023-01-25T02:32:03;103088.41;;;2.45;100.00
20630;BME280;17386;43.846;25.950;2023-01-25T02:34:29;103086.75;;;2.47;100.00
20630;BME280;17386;43.846;25.950;2023-01-25T02:36:54;103079.78;;;2.48;100.00
20630;BME280;17386;43.846;25.950;2023-01-25T02:39:20;103091.78;;;2.41;100.00
20630;BME280;17386;43.846;25.950;2023-01-25T02:41:48;103087.25;;;2.37;100.00
20630;BME280;17386;43.846;25.950;2023-01-25T02:44:17;103091.72;;;2.40;100.00
20630;BME280;17386;43.846;25.950;2023-01-25T02:46:44;103085.56;;;2.39;100.00
20630;BME280;17386;43.846;25.950;2023-01-25T02:49:10;103084.22;;;2.51;100.00
20630;BME280;17386;43.846;25.950;2023-01-25T02:51:38;103077.38;;;2.54;100.00
20630;BME280;17386;43.846;25.950;2023-01-25T02:54:06;103081.09;;;2.61;100.00
20630;BME280;17386;43.846;25.950;2023-01-25T02:56:32;103085.25;;;2.54;100.00
20630;BME280;17386;43.846;25.950;2023-01-25T02:58:57;103084.66;;;2.63;100.00
20630;BME280;17386;43.846;25.950;2023-01-25T03:01:23;103084.78;;;2.67;100.00
20630;BME280;17386;43.846;25.950;2023-01-25T03:03:48;103088.75;;;2.55;100.00
20630;BME280;17386;43.846;25.950;2023-01-25T03:06:14;103089.03;;;2.62;100.00
20630;BME280;17386;43.846;25.950;2023-01-25T03:08:40;103086.44;;;2.64;100.00
20630;BME280;17386;43.846;25.950;2023-01-25T03:11:05;103084.53;;;2.60;100.00
20630;BME280;17386;43.846;25.950;2023-01-25T03:13:32;103086.44;;;2.64;100.00
20630;BME280;17386;43.846;25.950;2023-01-25T03:16:03;103090.13;;;2.69;100.00
20630;BME280;17386;43.846;25.950;2023-01-25T03:18:29;103087.59;;;2.72;100.00
20630;BME280;17386;43.846;25.950;2023-01-25T03:20:55;103084.88;;;2.69;100.00
20630;BME280;17386;43.846;25.950;2023-01-25T03:23:20;103090.75;;;2.62;100.00
20630;BME280;17386;43.846;25.950;2023-01-25T03:25:46;103089.06;;;2.64;100.00
20630;BME280;17386;43.846;25.950;2023-01-25T03:28:12;103084.75;;;2.66;100.00
20630;BME280;17386;43.846;25.950;2023-01-25T03:30:38;103088.81;;;2.56;100.00
20630;BME280;17386;43.846;25.950;2023-01-25T03:33:03;103088.75;;;2.55;100.00
20630;BME280;17386;43.846;25.950;2023-01-25T03:35:29;103092.38;;;2.58;100.00
20630;BME280;17386;43.846;25.950;2023-01-25T03:37:54;103091.69;;;2.64;100.00
20630;BME280;17386;43.846;25.950;2023-01-25T03:40:19;103086.53;;;2.67;100.00
20630;BME280;17386;43.846;25.950;2023-01-25T03:42:45;103087.50;;;2.69;100.00
20630;BME280;17386;43.846;25.950;2023-01-25T03:45:10;103089.78;;;2.60;100.00
20630;BME280;17386;43.846;25.950;2023-01-25T03:47:39;103086.22;;;2.58;100.00
20630;BME280;17386;43.846;25.950;2023-01-25T03:50:05;103087.28;;;2.63;99.95
20630;BME280;17386;43.846;25.950;2023-01-25T03:52:42;103092.53;;;2.63;99.19
20630;BME280;17386;43.846;25.950;2023-01-25T03:55:10;103093.50;;;2.66;98.79
20630;BME280;17386;43.846;25.950;2023-01-25T03:57:35;103096.94;;;2.64;98.92
20630;BME280;17386;43.846;25.950;2023-01-25T04:00:01;103094.41;;;2.67;98.69
20630;BME280;17386;43.846;25.950;2023-01-25T04:02:26;103077.63;;;2.62;98.43
20630;BME280;17386;43.846;25.950;2023-01-25T04:04:51;103092.78;;;2.70;98.29
20630;BME280;17386;43.846;25.950;2023-01-25T04:07:17;103088.44;;;2.71;97.57
20630;BME280;17386;43.846;25.950;2023-01-25T04:09:42;103093.72;;;2.72;97.80
20630;BME280;17386;43.846;25.950;2023-01-25T04:12:07;103105.34;;;2.79;98.05
20630;BME280;17386;43.846;25.950;2023-01-25T04:14:33;103103.72;;;2.83;97.70
20630;BME280;17386;43.846;25.950;2023-01-25T04:16:58;103095.69;;;2.78;97.33
20630;BME280;17386;43.846;25.950;2023-01-25T04:19:24;103104.97;;;2.68;95.55
20630;BME280;17386;43.846;25.950;2023-01-25T04:21:49;103100.63;;;2.69;95.81
20630;BME280;17386;43.846;25.950;2023-01-25T04:24:14;103104.19;;;2.71;95.96
20630;BME280;17386;43.846;25.950;2023-01-25T04:26:40;103095.59;;;2.75;97.01
20630;BME280;17386;43.846;25.950;2023-01-25T04:29:05;103099.81;;;2.71;100.00
20630;BME280;17386;43.846;25.950;2023-01-25T04:31:30;103092.13;;;2.76;100.00
20630;BME280;17386;43.846;25.950;2023-01-25T04:33:56;103097.38;;;2.76;100.00
20630;BME280;17386;43.846;25.950;2023-01-25T04:36:21;103103.25;;;2.69;100.00
20630;BME280;17386;43.846;25.950;2023-01-25T04:38:46;103099.63;;;2.65;100.00
20630;BME280;17386;43.846;25.950;2023-01-25T04:41:12;103103.66;;;2.56;100.00
20630;BME280;17386;43.846;25.950;2023-01-25T04:43:37;103102.81;;;2.57;100.00
20630;BME280;17386;43.846;25.950;2023-01-25T04:46:03;103104.72;;;2.61;100.00
20630;BME280;17386;43.846;25.950;2023-01-25T04:48:28;103102.28;;;2.67;100.00
20630;BME280;17386;43.846;25.950;2023-01-25T04:50:54;103098.88;;;2.69;100.00
20630;BME280;17386;43.846;25.950;2023-01-25T04:53:19;103107.75;;;2.73;100.00
20630;BME280;17386;43.846;25.950;2023-01-25T04:55:45;103105.19;;;2.74;100.00
20630;BME280;17386;43.846;25.950;2023-01-25T04:58:12;103108.81;;;2.78;100.00
20630;BME280;17386;43.846;25.950;2023-01-25T05:00:37;103117.56;;;2.79;99.71
20630;BME280;17386;43.846;25.950;2023-01-25T05:03:03;103104.59;;;2.58;98.46
20630;BME280;17386;43.846;25.950;2023-01-25T05:05:28;103111.81;;;2.63;98.97
20630;BME280;17386;43.846;25.950;2023-01-25T05:07:54;103109.88;;;2.59;99.40
20630;BME280;17386;43.846;25.950;2023-01-25T05:10:19;103113.03;;;2.49;99.75
20630;BME280;17386;43.846;25.950;2023-01-25T05:12:45;103101.13;;;2.59;100.00
20630;BME280;17386;43.846;25.950;2023-01-25T05:15:10;103106.56;;;2.63;100.00
20630;BME280;17386;43.846;25.950;2023-01-25T05:17:35;103101.25;;;2.62;98.97
20630;BME280;17386;43.846;25.950;2023-01-25T05:20:02;103095.88;;;2.59;98.77
20630;BME280;17386;43.846;25.950;2023-01-25T05:22:27;103104.78;;;2.62;99.03
20630;BME280;17386;43.846;25.950;2023-01-25T05:24:53;103089.75;;;2.58;99.07
20630;BME280;17386;43.846;25.950;2023-01-25T05:27:19;103094.53;;;2.70;99.31
20630;BME280;17386;43.846;25.950;2023-01-25T05:29:45;103098.94;;;2.71;99.15
20630;BME280;17386;43.846;25.950;2023-01-25T05:32:11;103106.84;;;2.72;98.88
20630;BME280;17386;43.846;25.950;2023-01-25T05:34:37;103109.59;;;2.76;98.53
20630;BME280;17386;43.846;25.950;2023-01-25T05:37:04;103117.41;;;2.74;98.15
20630;BME280;17386;43.846;25.950;2023-01-25T05:39:30;103118.41;;;2.78;97.46
20630;BME280;17386;43.846;25.950;2023-01-25T05:41:55;103107.19;;;2.82;97.40
20630;BME280;17386;43.846;25.950;2023-01-25T05:44:21;103109.75;;;2.80;96.30
20630;BME280;17386;43.846;25.950;2023-01-25T05:46:47;103115.06;;;2.82;95.71
20630;BME280;17386;43.846;25.950;2023-01-25T05:49:12;103104.91;;;2.67;95.31
20630;BME280;17386;43.846;25.950;2023-01-25T05:51:40;103109.06;;;2.60;95.85
20630;BME280;17386;43.846;25.950;2023-01-25T05:54:06;103111.88;;;2.66;96.42
20630;BME280;17386;43.846;25.950;2023-01-25T05:56:32;103114.38;;;2.62;95.22
20630;BME280;17386;43.846;25.950;2023-01-25T05:58:59;103119.19;;;2.50;95.43
20630;BME280;17386;43.846;25.950;2023-01-25T06:01:26;103112.06;;;2.47;95.74
20630;BME280;17386;43.846;25.950;2023-01-25T06:03:52;103120.28;;;2.56;95.69
20630;BME280;17386;43.846;25.950;2023-01-25T06:06:18;103117.84;;;2.61;98.74
20630;BME280;17386;43.846;25.950;2023-01-25T06:08:44;103115.31;;;2.64;100.00
20630;BME280;17386;43.846;25.950;2023-01-25T06:11:11;103117.34;;;2.72;100.00
20630;BME280;17386;43.846;25.950;2023-01-25T06:13:37;103122.50;;;2.69;100.00
20630;BME280;17386;43.846;25.950;2023-01-25T06:16:03;103111.81;;;2.63;100.00
20630;BME280;17386;43.846;25.950;2023-01-25T06:18:30;103119.94;;;2.71;100.00
20630;BME280;17386;43.846;25.950;2023-01-25T06:20:56;103108.72;;;2.75;100.00
20630;BME280;17386;43.846;25.950;2023-01-25T06:23:22;103122.59;;;2.72;100.00
20630;BME280;17386;43.846;25.950;2023-01-25T06:25:47;103121.00;;;2.76;100.00
20630;BME280;17386;43.846;25.950;2023-01-25T06:28:13;103121.94;;;2.78;100.00
20630;BME280;17386;43.846;25.950;2023-01-25T06:30:38;103128.19;;;2.82;100.00
20630;BME280;17386;43.846;25.950;2023-01-25T06:33:03;103128.38;;;2.88;100.00
20630;BME280;17386;43.846;25.950;2023-01-25T06:35:30;103127.59;;;2.90;100.00
20630;BME280;17386;43.846;25.950;2023-01-25T06:37:57;103132.09;;;2.94;100.00
20630;BME280;17386;43.846;25.950;2023-01-25T06:40:23;103134.84;;;2.97;100.00
20630;BME280;17386;43.846;25.950;2023-01-25T06:42:49;103134.16;;;2.78;98.59
20630;BME280;17386;43.846;25.950;2023-01-25T06:45:14;103136.97;;;2.82;97.04
20630;BME280;17386;43.846;25.950;2023-01-25T06:47:40;103132.94;;;2.93;96.05
20630;BME280;17386;43.846;25.950;2023-01-25T06:50:06;103127.44;;;2.86;94.88
20630;BME280;17386;43.846;25.950;2023-01-25T06:52:32;103132.81;;;2.89;94.40
20630;BME280;17386;43.846;25.950;2023-01-25T06:55:04;103135.53;;;2.92;94.35
20630;BME280;17386;43.846;25.950;2023-01-25T06:57:31;103140.78;;;2.92;94.60
20630;BME280;17386;43.846;25.950;2023-01-25T06:59:56;103144.28;;;2.92;94.17
20630;BME280;17386;43.846;25.950;2023-01-25T07:02:21;103138.19;;;2.93;94.27
20630;BME280;17386;43.846;25.950;2023-01-25T07:04:47;103140.59;;;2.87;94.12
20630;BME280;17386;43.846;25.950;2023-01-25T07:07:12;103149.66;;;2.95;94.45
20630;BME280;17386;43.846;25.950;2023-01-25T07:09:38;103147.22;;;3.01;94.04
20630;BME280;17386;43.846;25.950;2023-01-25T07:12:03;103142.13;;;3.06;93.62
20630;BME280;17386;43.846;25.950;2023-01-25T07:14:29;103139.34;;;3.01;92.98
20630;BME280;17386;43.846;25.950;2023-01-25T07:16:55;103151.03;;;3.10;92.85
20630;BME280;17386;43.846;25.950;2023-01-25T07:19:21;103151.66;;;3.03;92.82
20630;BME280;17386;43.846;25.950;2023-01-25T07:21:46;103151.72;;;3.04;93.02
20630;BME280;17386;43.846;25.950;2023-01-25T07:24:16;103149.38;;;3.13;92.77
20630;BME280;17386;43.846;25.950;2023-01-25T07:26:42;103153.78;;;3.14;92.57
20630;BME280;17386;43.846;25.950;2023-01-25T07:29:12;103147.69;;;3.15;92.70
20630;BME280;17386;43.846;25.950;2023-01-25T07:31:38;103149.63;;;3.21;92.55
20630;BME280;17386;43.846;25.950;2023-01-25T07:34:03;103153.25;;;3.24;91.96
20630;BME280;17386;43.846;25.950;2023-01-25T07:36:29;103153.94;;;3.19;91.55
20630;BME280;17386;43.846;25.950;2023-01-25T07:38:56;103152.03;;;3.15;91.74
20630;BME280;17386;43.846;25.950;2023-01-25T07:41:25;103156.16;;;3.07;91.94
20630;BME280;17386;43.846;25.950;2023-01-25T07:43:51;103159.84;;;3.12;91.97
20630;BME280;17386;43.846;25.950;2023-01-25T07:46:16;103164.38;;;3.16;92.11
20630;BME280;17386;43.846;25.950;2023-01-25T07:48:50;103160.13;;;3.21;91.74
20630;BME280;17386;43.846;25.950;2023-01-25T07:51:17;103160.34;;;3.27;91.56
20630;BME280;17386;43.846;25.950;2023-01-25T07:53:54;103158.84;;;3.35;90.98
20630;BME280;17386;43.846;25.950;2023-01-25T07:56:22;103159.94;;;3.42;90.73
20630;BME280;17386;43.846;25.950;2023-01-25T07:58:47;103159.63;;;3.31;90.28
20630;BME280;17386;43.846;25.950;2023-01-25T08:01:18;103169.75;;;3.20;90.85
20630;BME280;17386;43.846;25.950;2023-01-25T08:03:45;103154.78;;;3.18;91.40
20630;BME280;17386;43.846;25.950;2023-01-25T08:06:11;103169.72;;;3.19;91.28
20630;BME280;17386;43.846;25.950;2023-01-25T08:08:42;103168.06;;;3.22;91.48
20630;BME280;17386;43.846;25.950;2023-01-25T08:13:33;103161.34;;;3.31;91.00
20630;BME280;17386;43.846;25.950;2023-01-25T08:15:58;103155.09;;;3.01;91.57
20630;BME280;17386;43.846;25.950;2023-01-25T08:18:24;103144.09;;;3.12;92.26
20630;BME280;17386;43.846;25.950;2023-01-25T08:20:50;103147.03;;;3.22;92.39
20630;BME280;17386;43.846;25.950;2023-01-25T08:23:15;103151.72;;;3.31;92.04
20630;BME280;17386;43.846;25.950;2023-01-25T08:25:40;103144.94;;;3.38;91.06
20630;BME280;17386;43.846;25.950;2023-01-25T08:28:06;103142.44;;;3.42;90.50
20630;BME280;17386;43.846;25.950;2023-01-25T08:30:32;103151.53;;;3.52;90.32
20630;BME280;17386;43.846;25.950;2023-01-25T08:32:58;103151.66;;;3.56;89.83
20630;BME280;17386;43.846;25.950;2023-01-25T08:35:23;103151.53;;;3.52;89.81
20630;BME280;17386;43.846;25.950;2023-01-25T08:37:48;103139.56;;;3.62;89.57
20630;BME280;17386;43.846;25.950;2023-01-25T08:40:14;103141.75;;;3.48;87.85
20630;BME280;17386;43.846;25.950;2023-01-25T08:42:39;103142.25;;;3.36;87.85
20630;BME280;17386;43.846;25.950;2023-01-25T08:45:08;103136.94;;;3.35;89.68
20630;BME280;17386;43.846;25.950;2023-01-25T08:47:34;103133.78;;;3.45;90.76
20630;BME280;17386;43.846;25.950;2023-01-25T08:49:59;103136.72;;;3.55;88.35
20630;BME280;17386;43.846;25.950;2023-01-25T08:52:25;103143.66;;;3.52;87.30
20630;BME280;17386;43.846;25.950;2023-01-25T08:54:51;103143.41;;;3.44;87.46
20630;BME280;17386;43.846;25.950;2023-01-25T08:57:16;103130.75;;;3.33;87.95
20630;BME280;17386;43.846;25.950;2023-01-25T08:59:42;103140.56;;;3.38;87.50
20630;BME280;17386;43.846;25.950;2023-01-25T09:02:10;103139.94;;;3.45;87.43
20630;BME280;17386;43.846;25.950;2023-01-25T09:04:36;103136.66;;;3.52;89.91
20630;BME280;17386;43.846;25.950;2023-01-25T09:07:01;103128.41;;;3.42;88.02
20630;BME280;17386;43.846;25.950;2023-01-25T09:09:27;103123.41;;;3.49;88.25
20630;BME280;17386;43.846;25.950;2023-01-25T09:11:54;103114.13;;;3.61;90.55
20630;BME280;17386;43.846;25.950;2023-01-25T09:14:19;103120.31;;;3.63;88.85
20630;BME280;17386;43.846;25.950;2023-01-25T09:16:44;103118.06;;;3.75;88.38
20630;BME280;17386;43.846;25.950;2023-01-25T09:19:10;103116.25;;;3.72;86.76
20630;BME280;17386;43.846;25.950;2023-01-25T09:21:35;103121.38;;;3.69;86.33
20630;BME280;17386;43.846;25.950;2023-01-25T09:24:01;103111.56;;;3.64;86.63
20630;BME280;17386;43.846;25.950;2023-01-25T09:26:27;103115.28;;;3.70;87.36
20630;BME280;17386;43.846;25.950;2023-01-25T09:28:53;103118.75;;;3.69;86.36
20630;BME280;17386;43.846;25.950;2023-01-25T09:31:19;103110.53;;;3.30;86.54
20630;BME280;17386;43.846;25.950;2023-01-25T09:33:45;103102.81;;;3.36;87.32
20630;BME280;17386;43.846;25.950;2023-01-25T09:36:11;103092.72;;;3.48;87.42
20630;BME280;17386;43.846;25.950;2023-01-25T09:38:37;103089.38;;;3.54;87.44
20630;BME280;17386;43.846;25.950;2023-01-25T09:43:59;103093.28;;;3.67;86.78
20630;BME280;17386;43.846;25.950;2023-01-25T09:46:45;103089.84;;;3.69;86.82
20630;BME280;17386;43.846;25.950;2023-01-25T09:54:27;103078.72;;;3.78;86.07
20630;BME280;17386;43.846;25.950;2023-01-25T09:56:53;103080.53;;;3.80;85.34
20630;BME280;17386;43.846;25.950;2023-01-25T09:59:22;103075.03;;;3.71;84.80
20630;BME280;17386;43.846;25.950;2023-01-25T10:04:25;103060.03;;;3.69;85.20
20630;BME280;17386;43.846;25.950;2023-01-25T10:06:55;103063.72;;;3.75;85.09
20630;BME280;17386;43.846;25.950;2023-01-25T10:12:26;103051.38;;;3.71;86.15
20630;BME280;17386;43.846;25.950;2023-01-25T10:14:55;103050.69;;;3.78;85.62
20630;BME280;17386;43.846;25.950;2023-01-25T10:17:32;103048.06;;;3.78;85.31
20630;BME280;17386;43.846;25.950;2023-01-25T10:23:30;103049.16;;;3.87;85.72
20630;BME280;17386;43.846;25.950;2023-01-25T10:28:50;103046.56;;;3.88;85.40
20630;BME280;17386;43.846;25.950;2023-01-25T10:31:19;103038.00;;;3.95;85.46
20630;BME280;17386;43.846;25.950;2023-01-25T10:33:46;103038.38;;;4.07;85.54
20630;BME280;17386;43.846;25.950;2023-01-25T10:36:14;103025.25;;;4.09;85.03
20630;BME280;17386;43.846;25.950;2023-01-25T10:38:46;103026.34;;;4.17;85.26
20630;BME280;17386;43.846;25.950;2023-01-25T10:41:20;103013.19;;;4.17;84.85
20630;BME280;17386;43.846;25.950;2023-01-25T10:43:51;103008.88;;;4.19;84.50
20630;BME280;17386;43.846;25.950;2023-01-25T10:46:37;102995.66;;;4.18;83.76
20630;BME280;17386;43.846;25.950;2023-01-25T10:54:42;102981.78;;;4.23;83.78
20630;BME280;17386;43.846;25.950;2023-01-25T10:57:10;102988.94;;;4.29;83.90
20630;BME280;17386;43.846;25.950;2023-01-25T10:59:37;102967.97;;;4.32;83.80
20630;BME280;17386;43.846;25.950;2023-01-25T11:07:46;102943.28;;;3.62;87.43
20630;BME280;17386;43.846;25.950;2023-01-25T11:10:33;102951.56;;;3.76;87.44
20630;BME280;17386;43.846;25.950;2023-01-25T11:15:45;102936.97;;;3.87;86.74
20630;BME280;17386;43.846;25.950;2023-01-25T11:18:15;102928.34;;;3.91;86.03
20630;BME280;17386;43.846;25.950;2023-01-25T11:20:43;102914.78;;;3.77;86.14
20630;BME280;17386;43.846;25.950;2023-01-25T11:23:25;102910.38;;;3.76;86.55
20630;BME280;17386;43.846;25.950;2023-01-25T11:25:51;102911.00;;;3.66;87.81
20630;BME280;17386;43.846;25.950;2023-01-25T11:30:43;102912.81;;;4.02;87.91
20630;BME280;17386;43.846;25.950;2023-01-25T11:33:10;102917.63;;;4.18;87.18
20630;BME280;17386;43.846;25.950;2023-01-25T11:35:42;102918.72;;;3.92;87.34
20630;BME280;17386;43.846;25.950;2023-01-25T11:38:17;102902.97;;;3.93;86.70
20630;BME280;17386;43.846;25.950;2023-01-25T11:40:45;102907.38;;;3.94;87.12
20630;BME280;17386;43.846;25.950;2023-01-25T11:51:26;102899.44;;;3.93;85.02
20630;BME280;17386;43.846;25.950;2023-01-25T11:56:59;102884.75;;;3.68;85.71
20630;BME280;17386;43.846;25.950;2023-01-25T12:02:51;102889.69;;;3.89;86.03
20630;BME280;17386;43.846;25.950;2023-01-25T12:05:42;102886.34;;;3.63;86.12
20630;BME280;17386;43.846;25.950;2023-01-25T12:27:45;102876.47;;;3.86;84.47
20630;BME280;17386;43.846;25.950;2023-01-25T12:33:19;102864.94;;;3.80;84.38
20630;BME280;17386;43.846;25.950;2023-01-25T12:36:08;102869.31;;;3.80;83.95
20630;BME280;17386;43.846;25.950;2023-01-25T12:39:09;102866.81;;;3.84;83.92
20630;BME280;17386;43.846;25.950;2023-01-25T12:42:22;102868.28;;;3.75;84.29
20630;BME280;17386;43.846;25.950;2023-01-25T12:52:34;102858.78;;;3.80;84.95
20630;BME280;17386;43.846;25.950;2023-01-25T12:55:05;102855.53;;;3.90;84.38
20630;BME280;17386;43.846;25.950;2023-01-25T13:00:48;102852.50;;;4.08;84.40
20630;BME280;17386;43.846;25.950;2023-01-25T13:11:38;102845.84;;;4.24;82.74
20630;BME280;17386;43.846;25.950;2023-01-25T13:14:38;102857.53;;;4.35;82.92
20630;BME280;17386;43.846;25.950;2023-01-25T13:19:53;102856.53;;;4.30;81.72
20630;BME280;17386;43.846;25.950;2023-01-25T13:25:40;102849.50;;;3.94;82.04
20630;BME280;17386;43.846;25.950;2023-01-25T13:28:42;102856.34;;;3.88;82.08
20630;BME280;17386;43.846;25.950;2023-01-25T13:34:12;102846.75;;;3.90;82.98
20630;BME280;17386;43.846;25.950;2023-01-25T13:36:57;102851.97;;;3.88;82.85
20630;BME280;17386;43.846;25.950;2023-01-25T13:44:36;102838.66;;;3.80;83.12
20630;BME280;17386;43.846;25.950;2023-01-25T13:47:06;102844.94;;;3.87;83.11
20630;BME280;17386;43.846;25.950;2023-01-25T13:52:26;102840.91;;;4.00;83.29
20630;BME280;17386;43.846;25.950;2023-01-25T13:54:55;102843.56;;;4.01;83.53
20630;BME280;17386;43.846;25.950;2023-01-25T13:57:27;102840.78;;;3.97;83.48
20630;BME280;17386;43.846;25.950;2023-01-25T14:00:12;102830.38;;;4.00;83.62
20630;BME280;17386;43.846;25.950;2023-01-25T14:02:42;102844.31;;;3.97;83.43
20630;BME280;17386;43.846;25.950;2023-01-25T14:05:21;102833.72;;;3.94;84.12
20630;BME280;17386;43.846;25.950;2023-01-25T14:07:51;102837.97;;;3.89;84.50
20630;BME280;17386;43.846;25.950;2023-01-25T14:10:20;102841.06;;;3.73;84.70
20630;BME280;17386;43.846;25.950;2023-01-25T14:12:49;102837.69;;;3.44;85.91
20630;BME280;17386;43.846;25.950;2023-01-25T14:15:24;102832.66;;;3.53;86.41
20630;BME280;17386;43.846;25.950;2023-01-25T14:18:40;102830.97;;;3.55;86.69
20630;BME280;17386;43.846;25.950;2023-01-25T14:23:38;102837.44;;;3.68;87.08
20630;BME280;17386;43.846;25.950;2023-01-25T14:26:26;102836.47;;;3.64;87.37
20630;BME280;17386;43.846;25.950;2023-01-25T14:28:57;102831.28;;;3.67;87.41
20630;BME280;17386;43.846;25.950;2023-01-25T14:31:25;102816.50;;;3.71;87.58
20630;BME280;17386;43.846;25.950;2023-01-25T14:33:52;102828.03;;;3.77;87.34
20630;BME280;17386;43.846;25.950;2023-01-25T14:36:28;102830.63;;;3.76;87.04
20630;BME280;17386;43.846;25.950;2023-01-25T14:38:56;102834.91;;;3.71;86.57
20630;BME280;17386;43.846;25.950;2023-01-25T14:41:28;102824.69;;;3.50;86.80
20630;BME280;17386;43.846;25.950;2023-01-25T14:43:58;102828.28;;;3.53;87.47
20630;BME280;17386;43.846;25.950;2023-01-25T14:49:15;102828.50;;;3.61;87.97
20630;BME280;17386;43.846;25.950;2023-01-25T14:51:47;102818.78;;;3.57;88.39